Time;durP1;ratioP1;P1;durP2;ratioP2;P2;SDS_P1;SDS_P2;PMS_P1;PMS_P2;Temp;Humidity;BMP_temperature;BMP_pressure;BME280_temperature;BME280_humidity;BME280_pressure;Samples;Min_cycle;Max_cycle;Signal;HPM_P1;HPM_P2
2022/10/23 00:01:13;;;;;;;9.40;4.77;;;11.80;99.90;;;;;;5097459;28;20468;-67
2022/10/23 00:03:40;;;;;;;9.40;4.70;;;11.70;99.90;;;;;;5096744;28;20464;-67
2022/10/23 00:06:10;;;;;;;8.07;4.03;;;11.70;99.90;;;;;;5097341;28;20471;-67
2022/10/23 00:08:40;;;;;;;8.67;4.53;;;11.60;99.90;;;;;;5096569;28;20506;-67
2022/10/23 00:11:11;;;;;;;7.70;4.20;;;11.50;99.90;;;;;;5097324;28;20437;-67
2022/10/23 00:13:39;;;;;;;6.50;4.57;;;11.50;99.90;;;;;;5095642;28;20495;-67
2022/10/23 00:16:11;;;;;;;12.10;5.50;;;11.50;99.90;;;;;;5096919;28;20454;-67
2022/10/23 00:18:39;;;;;;;9.33;4.70;;;11.50;99.90;;;;;;5097003;28;20430;-67
2022/10/23 00:21:08;;;;;;;6.70;4.27;;;11.60;99.90;;;;;;5096992;28;20460;-67
2022/10/23 00:23:35;;;;;;;8.27;4.33;;;11.60;99.90;;;;;;5097273;28;20435;-67
2022/10/23 00:26:06;;;;;;;6.07;4.47;;;11.60;99.90;;;;;;5097121;28;20471;-66
2022/10/23 00:28:37;;;;;;;7.67;4.60;;;11.70;99.90;;;;;;5096864;28;20492;-66
2022/10/23 00:31:08;;;;;;;9.77;4.03;;;11.90;99.90;;;;;;5096829;28;20464;-67
2022/10/23 00:33:36;;;;;;;10.13;4.60;;;12.00;99.90;;;;;;5097458;28;20478;-67
2022/10/23 00:36:05;;;;;;;12.63;4.33;;;12.00;99.90;;;;;;5096696;28;20472;-66
2022/10/23 00:38:33;;;;;;;7.07;4.40;;;12.00;99.90;;;;;;5096372;28;20466;-66
2022/10/23 00:41:00;;;;;;;6.80;4.50;;;12.00;99.90;;;;;;5099969;28;20460;-66
2022/10/23 00:43:30;;;;;;;10.10;4.73;;;11.80;99.90;;;;;;5100811;28;20868;-66
2022/10/23 00:45:58;;;;;;;8.80;4.90;;;11.90;99.90;;;;;;5100634;28;20436;-67
2022/10/23 00:48:27;;;;;;;6.20;4.07;;;11.90;99.90;;;;;;5099661;28;20471;-66
2022/10/23 00:50:55;;;;;;;6.13;4.33;;;12.00;99.90;;;;;;5100197;28;20464;-66
2022/10/23 00:53:23;;;;;;;6.90;4.30;;;12.00;99.90;;;;;;5100653;28;20755;-66
2022/10/23 00:55:56;;;;;;;14.63;4.77;;;12.00;99.90;;;;;;5093411;28;20480;-66
2022/10/23 00:58:23;;;;;;;9.03;4.20;;;12.00;99.90;;;;;;5079994;28;20443;-66
2022/10/23 01:00:55;;;;;;;10.60;3.73;;;11.90;99.90;;;;;;5080295;28;20460;-66
2022/10/23 01:03:27;;;;;;;9.30;4.57;;;12.00;99.90;;;;;;5080384;28;20543;-66
2022/10/23 01:06:03;;;;;;;10.47;4.27;;;12.10;99.90;;;;;;5079941;28;20457;-66
2022/10/23 01:08:35;;;;;;;8.90;4.10;;;12.10;99.90;;;;;;5079643;28;20493;-66
2022/10/23 01:11:10;;;;;;;8.50;4.10;;;12.20;99.90;;;;;;5079883;28;20465;-66
2022/10/23 01:13:47;;;;;;;8.23;3.70;;;12.10;99.90;;;;;;5090266;28;20460;-66
2022/10/23 01:16:21;;;;;;;11.13;4.70;;;12.10;99.90;;;;;;5100401;28;20513;-66
2022/10/23 01:19:07;;;;;;;11.40;4.47;;;12.10;99.90;;;;;;5100112;28;20464;-66
2022/10/23 01:21:44;;;;;;;5.63;3.70;;;12.10;99.90;;;;;;5099422;28;20456;-66
2022/10/23 01:24:21;;;;;;;4.03;3.40;;;12.10;99.90;;;;;;5099132;28;20460;-66
2022/10/23 01:27:04;;;;;;;10.30;4.27;;;12.10;99.90;;;;;;5099250;28;20467;-66
2022/10/23 01:29:38;;;;;;;9.90;4.00;;;11.90;99.90;;;;;;5097597;28;20495;-66
2022/10/23 01:32:09;;;;;;;13.70;3.77;;;11.90;99.90;;;;;;5099239;28;20911;-66
2022/10/23 01:34:45;;;;;;;11.13;3.97;;;12.00;99.90;;;;;;5098490;28;20470;-66
2022/10/23 01:37:16;;;;;;;7.37;3.90;;;11.90;99.90;;;;;;5099233;28;20500;-66
2022/10/23 01:39:47;;;;;;;8.97;4.77;;;12.00;99.90;;;;;;5098987;28;20930;-66
2022/10/23 01:42:18;;;;;;;6.07;4.10;;;11.90;99.90;;;;;;5095211;28;20435;-66
2022/10/23 01:44:50;;;;;;;21.77;4.80;;;11.90;99.90;;;;;;5078790;28;20443;-66
2022/10/23 01:47:20;;;;;;;9.20;4.00;;;11.90;99.90;;;;;;5078758;28;20538;-66
2022/10/23 01:49:51;;;;;;;11.20;4.17;;;11.90;99.90;;;;;;5078938;28;20468;-66
2022/10/23 01:52:20;;;;;;;6.13;3.97;;;11.90;99.90;;;;;;5077547;28;20764;-66
2022/10/23 01:54:49;;;;;;;7.77;4.30;;;11.90;99.90;;;;;;5078177;28;20777;-66
2022/10/23 01:57:19;;;;;;;9.77;4.10;;;11.80;99.90;;;;;;5078578;28;20442;-66
2022/10/23 01:59:51;;;;;;;10.10;4.60;;;11.70;99.90;;;;;;5077621;28;20480;-65
2022/10/23 02:02:20;;;;;;;6.37;4.37;;;11.70;99.90;;;;;;5078092;28;20894;-65
2022/10/23 02:04:55;;;;;;;12.90;4.13;;;11.70;99.90;;;;;;5078678;28;20560;-65
2022/10/23 02:07:23;;;;;;;5.60;4.10;;;11.60;99.90;;;;;;5078363;28;20530;-64
2022/10/23 02:09:55;;;;;;;8.90;4.60;;;11.60;99.90;;;;;;5078971;28;20877;-64
2022/10/23 02:12:29;;;;;;;7.40;4.00;;;11.60;99.90;;;;;;5078266;28;20471;-64
2022/10/23 02:15:08;;;;;;;10.30;4.70;;;11.60;99.90;;;;;;5078644;28;20509;-64
2022/10/23 02:17:47;;;;;;;6.93;4.47;;;11.60;99.90;;;;;;5078834;28;20485;-64
2022/10/23 02:20:21;;;;;;;8.63;3.77;;;11.60;99.90;;;;;;5078366;28;20502;-64
2022/10/23 02:22:57;;;;;;;6.10;4.20;;;11.50;99.90;;;;;;5078631;28;20443;-64
2022/10/23 02:25:32;;;;;;;6.20;4.00;;;11.50;99.90;;;;;;5078622;28;20435;-65
2022/10/23 02:28:05;;;;;;;7.63;3.63;;;11.50;99.90;;;;;;5078167;28;21006;-64
2022/10/23 02:30:37;;;;;;;6.40;4.37;;;11.40;99.90;;;;;;5078754;28;20898;-64
2022/10/23 02:33:10;;;;;;;5.97;4.30;;;11.40;99.90;;;;;;5078472;28;20435;-64
2022/10/23 02:35:37;;;;;;;10.40;5.07;;;11.40;99.90;;;;;;5078070;28;20468;-65
2022/10/23 02:38:30;;;;;;;6.43;3.53;;;11.40;99.90;;;;;;5078409;28;20760;-65
2022/10/23 02:41:02;;;;;;;6.60;4.33;;;11.40;99.90;;;;;;5078231;28;20744;-64
2022/10/23 02:43:36;;;;;;;7.77;4.33;;;11.40;99.90;;;;;;5078404;28;20465;-65
2022/10/23 02:46:14;;;;;;;8.43;4.70;;;11.40;99.90;;;;;;5078085;28;20457;-65
2022/10/23 02:48:47;;;;;;;8.87;4.60;;;11.40;99.90;;;;;;5077940;28;20489;-65
2022/10/23 02:51:21;;;;;;;9.80;4.93;;;11.50;99.90;;;;;;5078228;28;20468;-66
2022/10/23 02:54:01;;;;;;;6.40;4.00;;;11.50;99.90;;;;;;5077604;28;20472;-66
2022/10/23 02:56:35;;;;;;;5.73;3.83;;;11.60;99.90;;;;;;5078130;28;20889;-66
2022/10/23 02:59:08;;;;;;;6.30;3.93;;;11.60;99.90;;;;;;5077997;28;20457;-66
2022/10/23 03:01:46;;;;;;;8.77;4.40;;;11.40;99.90;;;;;;5077852;28;20428;-66
2022/10/23 03:04:18;;;;;;;7.27;4.00;;;11.50;99.90;;;;;;5077129;28;20467;-66
2022/10/23 03:06:46;;;;;;;6.30;4.70;;;11.60;99.90;;;;;;5077431;28;20472;-66
2022/10/23 03:09:13;;;;;;;9.70;3.90;;;11.60;99.90;;;;;;5077656;28;20798;-66
2022/10/23 03:11:40;;;;;;;11.80;4.70;;;11.60;99.90;;;;;;5093322;28;20463;-67
2022/10/23 03:14:12;;;;;;;8.00;3.80;;;11.60;99.90;;;;;;5097375;28;20866;-67
2022/10/23 03:16:43;;;;;;;12.50;4.97;;;11.60;99.90;;;;;;5097664;28;20439;-67
2022/10/23 03:19:11;;;;;;;7.93;3.80;;;11.50;99.90;;;;;;5097944;28;20513;-67
2022/10/23 03:21:38;;;;;;;7.27;4.47;;;11.50;99.90;;;;;;5097558;28;20460;-67
2022/10/23 03:24:06;;;;;;;6.90;3.70;;;11.50;99.90;;;;;;5097545;28;20446;-67
2022/10/23 03:26:33;;;;;;;7.90;3.67;;;11.50;99.90;;;;;;5097928;28;20430;-67
2022/10/23 03:29:00;;;;;;;5.20;3.90;;;11.40;99.90;;;;;;5097595;28;20492;-66
2022/10/23 03:31:27;;;;;;;8.30;4.50;;;11.40;99.90;;;;;;5097253;28;20897;-66
2022/10/23 03:33:59;;;;;;;8.63;4.87;;;11.40;99.90;;;;;;5097492;28;20467;-66
2022/10/23 03:36:26;;;;;;;8.70;4.37;;;11.40;99.90;;;;;;5097666;28;20464;-68
2022/10/23 03:38:53;;;;;;;5.27;3.93;;;11.40;99.90;;;;;;5096679;28;20758;-67
2022/10/23 03:41:24;;;;;;;6.30;4.00;;;11.50;99.90;;;;;;5095165;28;20431;-67
2022/10/23 03:43:51;;;;;;;5.60;3.30;;;11.50;99.90;;;;;;5097439;28;20456;-67
2022/10/23 03:46:18;;;;;;;4.83;3.60;;;11.60;99.90;;;;;;5097364;28;20463;-67
2022/10/23 03:48:45;;;;;;;10.07;3.63;;;11.60;99.90;;;;;;5096840;28;20495;-66
2022/10/23 03:51:14;;;;;;;7.30;3.83;;;11.50;99.90;;;;;;5097507;28;20460;-66
2022/10/23 03:53:41;;;;;;;6.77;3.77;;;11.50;99.90;;;;;;5096974;28;20741;-66
2022/10/23 03:56:08;;;;;;;5.80;4.40;;;11.50;99.90;;;;;;5097422;28;20492;-66
2022/10/23 03:58:35;;;;;;;11.77;4.20;;;11.50;99.90;;;;;;5097682;28;20578;-66
2022/10/23 04:01:05;;;;;;;5.57;3.87;;;11.60;99.90;;;;;;5097861;28;20467;-66
2022/10/23 04:03:32;;;;;;;6.43;4.20;;;11.60;99.90;;;;;;5097879;28;20456;-66
2022/10/23 04:06:00;;;;;;;8.73;4.10;;;11.60;99.90;;;;;;5097804;28;20759;-66
2022/10/23 04:08:28;;;;;;;6.43;4.20;;;11.60;99.90;;;;;;5097413;28;20500;-66
2022/10/23 04:10:56;;;;;;;5.93;4.10;;;11.70;99.90;;;;;;5097408;28;20441;-66
2022/10/23 04:13:23;;;;;;;9.27;3.93;;;11.70;99.90;;;;;;5096718;28;20438;-65
2022/10/23 04:15:51;;;;;;;7.90;4.00;;;11.60;99.90;;;;;;5099432;28;20460;-65
2022/10/23 04:18:19;;;;;;;5.43;3.93;;;11.60;99.90;;;;;;5100739;28;20479;-65
2022/10/23 04:20:48;;;;;;;8.97;4.77;;;11.70;99.90;;;;;;5101326;28;20456;-65
2022/10/23 04:23:15;;;;;;;4.60;3.73;;;11.70;99.90;;;;;;5101028;28;20463;-65
2022/10/23 04:25:44;;;;;;;4.70;3.83;;;11.80;99.90;;;;;;5100664;28;20467;-66
2022/10/23 04:28:12;;;;;;;6.27;4.50;;;11.90;99.90;;;;;;5100925;28;20510;-66
2022/10/23 04:30:40;;;;;;;18.23;5.00;;;12.10;99.90;;;;;;5100038;28;20470;-66
2022/10/23 04:33:07;;;;;;;6.03;3.47;;;12.10;99.90;;;;;;5100892;28;20456;-66
2022/10/23 04:35:34;;;;;;;7.30;3.90;;;12.10;99.90;;;;;;5100761;28;20746;-66
2022/10/23 04:38:02;;;;;;;5.40;3.90;;;12.10;99.90;;;;;;5099326;28;20460;-65
2022/10/23 04:40:29;;;;;;;9.27;4.50;;;12.20;99.90;;;;;;5099980;28;20766;-66
2022/10/23 04:42:58;;;;;;;4.27;3.57;;;12.20;99.90;;;;;;5100622;28;20463;-66
2022/10/23 04:45:27;;;;;;;9.73;4.27;;;12.30;99.90;;;;;;5100704;28;20888;-66
2022/10/23 04:47:55;;;;;;;9.93;3.80;;;12.30;99.90;;;;;;5101081;28;20724;-66
2022/10/23 04:50:22;;;;;;;11.67;4.50;;;12.40;99.90;;;;;;5100276;28;20499;-66
2022/10/23 04:52:53;;;;;;;6.30;3.70;;;12.50;99.90;;;;;;5100708;28;20551;-66
2022/10/23 04:55:20;;;;;;;9.90;3.93;;;12.50;99.90;;;;;;5100231;28;20459;-66
2022/10/23 04:57:47;;;;;;;10.67;3.50;;;12.50;99.90;;;;;;5100429;28;20464;-66
2022/10/23 05:00:18;;;;;;;5.93;3.60;;;12.60;99.90;;;;;;5099836;28;20891;-66
2022/10/23 05:02:45;;;;;;;9.80;3.60;;;12.60;99.90;;;;;;5099498;28;20472;-66
2022/10/23 05:05:12;;;;;;;7.50;4.70;;;12.60;99.90;;;;;;5099378;28;20826;-66
2022/10/23 05:07:40;;;;;;;4.37;3.80;;;12.60;99.90;;;;;;5098674;28;20484;-66
2022/10/23 05:10:08;;;;;;;10.00;3.97;;;12.60;99.90;;;;;;5099125;28;20463;-66
2022/10/23 05:12:35;;;;;;;7.20;4.30;;;12.70;99.90;;;;;;5099940;28;20460;-65
2022/10/23 05:15:02;;;;;;;5.10;4.00;;;12.70;99.90;;;;;;5100440;28;20471;-66
2022/10/23 05:17:34;;;;;;;5.10;3.30;;;12.70;99.90;;;;;;5100232;28;20431;-66
2022/10/23 05:20:06;;;;;;;7.03;3.73;;;12.70;99.90;;;;;;5099563;28;20510;-66
2022/10/23 05:22:37;;;;;;;6.00;3.90;;;12.70;99.90;;;;;;5099882;28;20916;-66
2022/10/23 05:25:05;;;;;;;8.07;4.00;;;12.70;99.90;;;;;;5099408;28;20973;-66
2022/10/23 05:27:32;;;;;;;8.73;4.00;;;12.60;99.90;;;;;;5099476;28;20456;-66
2022/10/23 05:30:01;;;;;;;10.23;3.47;;;12.60;99.90;;;;;;5099269;28;20496;-65
2022/10/23 05:32:35;;;;;;;3.17;2.73;;;12.60;99.90;;;;;;5099616;28;20465;-65
2022/10/23 05:35:06;;;;;;;6.07;3.83;;;12.60;99.90;;;;;;5099949;28;20490;-65
2022/10/23 05:37:34;;;;;;;12.90;4.60;;;12.60;99.90;;;;;;5099765;28;20458;-65
2022/10/23 05:40:01;;;;;;;4.47;3.73;;;12.40;99.90;;;;;;5098050;28;20445;-65
2022/10/23 05:42:28;;;;;;;5.33;3.47;;;12.50;99.90;;;;;;5097923;28;20463;-65
2022/10/23 05:44:57;;;;;;;6.33;3.80;;;12.50;99.90;;;;;;5098399;28;20456;-65
2022/10/23 05:47:24;;;;;;;6.17;3.87;;;12.50;99.90;;;;;;5099600;28;20457;-65
2022/10/23 05:49:53;;;;;;;5.60;3.40;;;12.30;99.90;;;;;;5099047;28;20492;-65
2022/10/23 05:52:20;;;;;;;9.40;4.20;;;12.20;99.90;;;;;;5099321;28;20711;-65
2022/10/23 05:54:47;;;;;;;6.13;4.37;;;12.20;99.90;;;;;;5098552;28;20453;-65
2022/10/23 05:57:14;;;;;;;5.47;3.80;;;12.20;99.90;;;;;;5098450;28;20431;-65
2022/10/23 05:59:42;;;;;;;5.03;3.77;;;12.20;99.90;;;;;;5097235;28;20435;-65
2022/10/23 06:02:09;;;;;;;5.10;3.53;;;12.10;99.90;;;;;;5098927;28;20449;-64
2022/10/23 06:04:36;;;;;;;11.13;4.90;;;12.00;99.90;;;;;;5098472;28;20452;-64
2022/10/23 06:07:05;;;;;;;8.83;3.93;;;12.00;99.90;;;;;;5098564;28;20473;-64
2022/10/23 06:09:32;;;;;;;4.83;3.77;;;12.10;99.90;;;;;;5095923;28;20486;-64
2022/10/23 06:12:03;;;;;;;10.00;3.93;;;12.10;99.90;;;;;;5096927;28;20459;-64
2022/10/23 06:14:30;;;;;;;5.27;3.63;;;12.20;99.90;;;;;;5098000;28;20866;-64
2022/10/23 06:17:01;;;;;;;6.33;3.50;;;12.30;99.90;;;;;;5098312;28;20459;-64
2022/10/23 06:19:29;;;;;;;5.30;3.50;;;12.50;99.90;;;;;;5098171;28;20463;-64
2022/10/23 06:21:57;;;;;;;4.40;3.33;;;12.40;99.90;;;;;;5097761;28;20456;-64
2022/10/23 06:24:26;;;;;;;5.03;4.10;;;12.30;99.90;;;;;;5098116;28;20452;-64
2022/10/23 06:26:53;;;;;;;7.97;3.50;;;12.30;99.90;;;;;;5096128;28;20460;-64
2022/10/23 06:29:23;;;;;;;16.07;3.70;;;12.30;99.90;;;;;;5098225;28;20961;-64
2022/10/23 06:31:53;;;;;;;5.93;3.77;;;12.30;99.90;;;;;;5097454;28;20467;-64
2022/10/23 06:34:20;;;;;;;4.97;3.30;;;12.30;99.90;;;;;;5097506;28;20472;-64
2022/10/23 06:36:47;;;;;;;8.33;3.13;;;12.40;99.90;;;;;;5097233;28;20859;-65
2022/10/23 06:39:14;;;;;;;6.50;3.40;;;12.50;99.90;;;;;;5097889;28;20948;-64
2022/10/23 06:41:44;;;;;;;6.17;3.70;;;12.50;99.90;;;;;;5098175;28;20460;-64
2022/10/23 06:44:11;;;;;;;7.43;3.70;;;12.50;99.90;;;;;;5097902;28;20456;-64
2022/10/23 06:46:38;;;;;;;6.90;3.40;;;12.60;99.90;;;;;;5098489;28;20461;-64
2022/10/23 06:49:06;;;;;;;7.30;3.43;;;12.60;99.90;;;;;;5098604;28;20497;-65
2022/10/23 06:51:33;;;;;;;4.70;3.20;;;12.60;99.90;;;;;;5098501;28;20464;-65
2022/10/23 06:54:00;;;;;;;8.37;3.30;;;12.70;99.90;;;;;;5098275;28;20460;-65
2022/10/23 06:56:29;;;;;;;8.60;4.07;;;12.80;99.90;;;;;;5097409;28;20459;-65
2022/10/23 06:58:59;;;;;;;12.60;4.43;;;12.80;99.90;;;;;;5098058;28;20499;-64
2022/10/23 07:01:27;;;;;;;6.20;3.40;;;12.90;99.90;;;;;;5098070;28;20467;-64
2022/10/23 07:03:54;;;;;;;6.53;3.67;;;13.00;99.90;;;;;;5098275;28;20460;-64
2022/10/23 07:06:21;;;;;;;11.00;6.00;;;13.10;99.90;;;;;;5097835;28;20460;-64
2022/10/23 07:08:49;;;;;;;8.27;4.23;;;13.10;99.90;;;;;;5097369;28;20582;-64
2022/10/23 07:11:16;;;;;;;9.60;3.90;;;13.20;99.90;;;;;;5097952;28;20479;-65
2022/10/23 07:13:45;;;;;;;6.63;3.50;;;13.30;99.90;;;;;;5097404;28;20467;-65
2022/10/23 07:16:21;;;;;;;9.83;3.40;;;13.40;99.90;;;;;;5097570;28;20896;-65
2022/10/23 07:18:50;;;;;;;5.50;3.63;;;13.50;99.90;;;;;;5097677;28;20752;-65
2022/10/23 07:21:17;;;;;;;3.67;3.00;;;13.50;99.90;;;;;;5097554;28;20471;-65
2022/10/23 07:23:54;;;;;;;3.80;2.80;;;13.60;99.90;;;;;;5097487;28;20805;-65
2022/10/23 07:26:21;;;;;;;5.40;3.53;;;13.70;99.90;;;;;;5097534;28;20459;-65
2022/10/23 07:28:53;;;;;;;5.47;2.63;;;13.80;99.90;;;;;;5097757;28;20513;-64
2022/10/23 07:31:22;;;;;;;5.10;3.00;;;13.80;99.90;;;;;;5097572;28;20907;-64
2022/10/23 07:33:50;;;;;;;5.87;2.73;;;13.80;99.90;;;;;;5096035;28;20444;-64
2022/10/23 07:36:17;;;;;;;4.23;2.80;;;13.80;99.90;;;;;;5094300;28;20905;-64
2022/10/23 07:38:48;;;;;;;2.87;2.27;;;13.80;99.90;;;;;;5097396;28;20456;-64
2022/10/23 07:41:15;;;;;;;7.53;2.97;;;13.90;99.90;;;;;;5097293;28;20737;-64
2022/10/23 07:43:42;;;;;;;5.33;3.00;;;13.90;99.90;;;;;;5096659;28;20559;-64
2022/10/23 07:46:09;;;;;;;5.70;2.97;;;14.00;99.90;;;;;;5097036;28;20452;-64
2022/10/23 07:48:39;;;;;;;5.10;3.30;;;14.10;99.90;;;;;;5097483;28;20456;-64
2022/10/23 07:51:11;;;;;;;4.53;2.60;;;14.20;99.90;;;;;;5097532;28;20910;-64
2022/10/23 07:53:39;;;;;;;6.13;2.80;;;14.30;99.90;;;;;;5097619;28;20467;-64
2022/10/23 07:56:16;;;;;;;7.20;2.73;;;14.40;99.90;;;;;;5095485;28;20460;-65
2022/10/23 07:58:44;;;;;;;5.40;2.67;;;14.50;99.90;;;;;;5097115;28;20460;-65
2022/10/23 08:01:18;;;;;;;6.10;3.13;;;14.60;99.90;;;;;;5096727;28;20517;-64
2022/10/23 08:03:52;;;;;;;3.80;2.80;;;14.80;99.90;;;;;;5096682;28;20871;-65
2022/10/23 08:06:21;;;;;;;5.47;2.97;;;14.90;99.90;;;;;;5096994;28;20499;-65
2022/10/23 08:08:48;;;;;;;4.40;2.67;;;15.00;99.90;;;;;;5097011;28;20523;-65
2022/10/23 08:11:19;;;;;;;11.77;3.50;;;15.20;99.90;;;;;;5097229;28;20492;-65
2022/10/23 08:13:48;;;;;;;3.90;2.40;;;15.30;99.90;;;;;;5096518;28;20464;-66
2022/10/23 08:16:16;;;;;;;4.97;2.87;;;15.50;99.90;;;;;;5097170;28;20435;-65
2022/10/23 08:18:44;;;;;;;6.03;2.70;;;15.60;99.90;;;;;;5097371;28;20467;-65
2022/10/23 08:21:14;;;;;;;4.70;2.80;;;15.80;99.90;;;;;;5097162;28;20501;-65
2022/10/23 08:23:45;;;;;;;4.63;2.50;;;16.10;99.90;;;;;;5087173;28;20472;-65
2022/10/23 08:26:16;;;;;;;5.60;2.73;;;16.30;99.90;;;;;;5076001;28;20461;-65
2022/10/23 08:28:44;;;;;;;4.20;2.80;;;16.50;1.00;;;;;;5076501;28;20468;-65
2022/10/23 08:31:16;;;;;;;5.03;2.30;;;16.80;99.90;;;;;;5076824;28;21095;-64
2022/10/23 08:33:45;;;;;;;2.83;2.53;;;17.10;1.00;;;;;;5076519;28;20436;-66
2022/10/23 08:36:22;;;;;;;5.57;2.80;;;17.40;1.00;;;;;;5076815;28;20467;-65
2022/10/23 08:38:52;;;;;;;4.30;2.50;;;17.40;1.00;;;;;;5076905;28;20731;-64
2022/10/23 08:41:31;;;;;;;4.10;2.60;;;17.70;1.00;;;;;;5076368;28;20894;-64
2022/10/23 08:44:06;;;;;;;6.47;2.70;;;17.90;1.00;;;;;;5075446;28;20754;-64
2022/10/23 08:46:42;;;;;;;5.73;3.03;;;17.90;1.00;;;;;;5076384;28;20498;-64
2022/10/23 08:49:34;;;;;;;4.87;2.60;;;18.00;1.00;;;;;;5076740;28;20514;-64
2022/10/23 08:52:11;;;;;;;6.20;2.70;;;18.20;1.00;;;;;;5076839;28;20453;-64
2022/10/23 08:54:49;;;;;;;4.67;2.23;;;18.30;1.00;;;;;;5075793;28;20460;-63
2022/10/23 08:57:22;;;;;;;8.23;2.60;;;18.50;1.00;;;;;;5080593;28;20444;-63
2022/10/23 08:59:52;;;;;;;3.87;2.77;;;18.90;1.00;;;;;;5096269;28;20827;-63
2022/10/23 09:02:26;;;;;;;5.20;2.60;;;19.10;1.00;;;;;;5097848;28;20444;-64
2022/10/23 09:04:56;;;;;;;3.30;2.90;;;19.10;99.90;;;;;;5097115;28;20746;-63
2022/10/23 09:07:40;;;;;;;4.00;3.03;;;18.90;99.90;;;;;;5097368;28;20479;-64
2022/10/23 09:10:21;;;;;;;4.07;2.80;;;18.90;99.90;;;;;;5097368;28;20484;-62
2022/10/23 09:12:49;;;;;;;5.30;2.93;;;18.70;99.90;;;;;;5097403;28;20506;-62
2022/10/23 09:15:30;;;;;;;5.33;2.60;;;18.70;99.90;;;;;;5098686;28;20522;-62
2022/10/23 09:18:00;;;;;;;2.77;1.83;;;18.70;99.90;;;;;;5095798;28;20459;-62
2022/10/23 09:20:34;;;;;;;4.40;2.30;;;18.70;99.90;;;;;;5080221;28;20451;-62
2022/10/23 09:23:07;;;;;;;4.53;2.50;;;18.90;99.90;;;;;;5096684;28;20467;-62
2022/10/23 09:25:38;;;;;;;3.90;2.27;;;19.10;99.90;;;;;;5098330;28;20448;-62
2022/10/23 09:28:19;;;;;;;4.77;2.30;;;19.30;99.90;;;;;;5097428;28;20741;-61
2022/10/23 09:30:48;;;;;;;7.13;3.30;;;19.50;99.90;;;;;;5096940;28;20499;-60
2022/10/23 09:33:17;;;;;;;4.17;2.63;;;19.60;99.90;;;;;;5098184;28;20457;-62
2022/10/23 09:35:58;;;;;;;3.00;2.47;;;19.70;99.90;;;;;;5098168;28;20908;-61
2022/10/23 09:38:34;;;;;;;9.87;2.90;;;19.70;99.90;;;;;;5096409;28;20474;-62
2022/10/23 09:41:07;;;;;;;3.57;1.87;;;19.60;99.90;;;;;;5096297;28;20451;-61
2022/10/23 09:43:34;;;;;;;3.93;2.77;;;19.60;99.90;;;;;;5098236;28;20881;-61
2022/10/23 09:46:05;;;;;;;7.00;2.40;;;19.50;99.90;;;;;;5097597;28;20509;-61
2022/10/23 09:48:32;;;;;;;3.10;2.37;;;19.20;99.90;;;;;;5094617;28;20474;-62
2022/10/23 09:51:04;;;;;;;7.40;2.60;;;19.20;99.90;;;;;;5085590;28;20466;-62
2022/10/23 09:53:37;;;;;;;3.80;2.40;;;19.10;99.90;;;;;;5092777;28;20460;-63
2022/10/23 09:56:10;;;;;;;8.43;2.33;;;18.70;99.90;;;;;;5097783;28;20460;-62
2022/10/23 09:58:43;;;;;;;5.47;2.43;;;18.50;99.90;;;;;;5099393;28;20456;-63
2022/10/23 10:01:23;;;;;;;4.20;2.00;;;18.60;99.90;;;;;;5099225;28;20468;-63
2022/10/23 10:03:52;;;;;;;5.70;2.37;;;18.70;99.90;;;;;;5098982;28;20911;-63
2022/10/23 10:06:23;;;;;;;3.87;2.37;;;18.80;99.90;;;;;;5097432;28;20480;-63
2022/10/23 10:08:54;;;;;;;8.53;2.80;;;19.00;99.90;;;;;;5097070;28;20506;-63
2022/10/23 10:11:30;;;;;;;6.50;2.87;;;19.10;99.90;;;;;;5097537;28;20484;-63
2022/10/23 10:14:38;;;;;;;3.63;2.60;;;19.40;99.90;;;;;;5097451;28;20792;-63
2022/10/23 10:17:13;;;;;;;4.53;2.17;;;19.60;99.90;;;;;;5016713;28;20470;-62
2022/10/23 10:20:00;;;;;;;6.83;2.30;;;19.60;99.90;;;;;;5069432;28;20502;-63
2022/10/23 10:22:38;;;;;;;4.10;2.20;;;19.50;99.90;;;;;;5078328;28;20952;-63
2022/10/23 10:25:14;;;;;;;3.30;2.47;;;19.30;99.90;;;;;;5078417;28;20469;-63
2022/10/23 10:27:52;;;;;;;5.43;2.47;;;19.20;99.90;;;;;;5095533;28;20468;-63
2022/10/23 10:30:23;;;;;;;8.90;2.60;;;19.20;99.90;;;;;;5095893;28;20494;-63
2022/10/23 10:32:58;;;;;;;3.50;2.20;;;19.00;99.90;;;;;;5096836;28;20526;-63
2022/10/23 10:35:38;;;;;;;2.73;2.20;;;19.10;99.90;;;;;;5096994;28;20554;-63
2022/10/23 10:38:28;;;;;;;5.57;3.03;;;19.10;99.90;;;;;;5094965;28;20463;-63
2022/10/23 10:41:22;;;;;;;3.40;2.20;;;19.10;99.90;;;;;;5093882;28;20924;-64
2022/10/23 10:44:02;;;;;;;6.53;2.27;;;19.00;99.90;;;;;;5096735;28;20461;-63
2022/10/23 10:46:35;;;;;;;8.73;2.37;;;19.00;99.90;;;;;;5098161;28;20459;-63
2022/10/23 10:49:14;;;;;;;3.73;1.73;;;18.90;99.90;;;;;;5098146;28;20442;-63
2022/10/23 10:51:48;;;;;;;6.00;2.80;;;18.90;99.90;;;;;;5097188;28;20488;-63
2022/10/23 10:54:29;;;;;;;6.30;2.50;;;19.10;99.90;;;;;;5096810;28;20460;-63
2022/10/23 10:57:00;;;;;;;2.43;2.10;;;19.20;99.90;;;;;;5096964;28;20460;-63
2022/10/23 10:59:30;;;;;;;4.07;2.50;;;19.40;99.90;;;;;;5092403;28;20756;-63
2022/10/23 11:02:11;;;;;;;4.60;2.73;;;19.40;99.90;;;;;;5095137;28;20455;-63
2022/10/23 11:04:44;;;;;;;5.17;2.50;;;19.30;99.90;;;;;;5097873;28;20556;-64
2022/10/23 11:07:16;;;;;;;3.67;2.87;;;19.30;99.90;;;;;;5094729;28;20472;-63
2022/10/23 11:09:46;;;;;;;8.00;2.70;;;19.20;99.90;;;;;;5095023;28;20510;-63
2022/10/23 11:12:20;;;;;;;5.70;2.83;;;19.40;99.90;;;;;;5095164;28;20519;-64
2022/10/23 11:14:48;;;;;;;5.80;2.67;;;19.40;99.90;;;;;;5094891;28;20460;-63
2022/10/23 11:17:20;;;;;;;3.17;2.63;;;19.50;99.90;;;;;;5094064;28;20480;-63
2022/10/23 11:19:52;;;;;;;4.10;3.07;;;19.40;99.90;;;;;;5095611;28;20913;-64
2022/10/23 11:22:27;;;;;;;6.70;2.60;;;19.40;99.90;;;;;;5095773;28;20496;-64
2022/10/23 11:25:27;;;;;;;3.93;2.60;;;19.50;99.90;;;;;;5096755;28;20460;-62
2022/10/23 11:28:20;;;;;;;6.50;2.37;;;19.70;99.90;;;;;;5076608;28;20454;-63
2022/10/23 11:31:04;;;;;;;4.40;2.30;;;19.90;99.90;;;;;;5095039;28;20945;-62
2022/10/23 11:33:59;;;;;;;4.17;2.40;;;19.90;99.90;;;;;;5095739;28;20463;-62
2022/10/23 11:36:46;;;;;;;8.17;3.30;;;19.80;99.90;;;;;;5091525;28;20493;-62
2022/10/23 11:39:26;;;;;;;4.07;2.57;;;19.70;99.90;;;;;;5072913;28;21115;-62
2022/10/23 11:41:56;;;;;;;5.13;2.40;;;19.60;99.90;;;;;;5073778;28;20456;-62
2022/10/23 11:44:41;;;;;;;3.90;2.40;;;19.60;99.90;;;;;;5074436;28;20890;-63
2022/10/23 11:47:34;;;;;;;11.00;4.13;;;19.40;99.90;;;;;;5076225;28;20439;-62
2022/10/23 11:50:26;;;;;;;6.20;2.87;;;19.10;99.90;;;;;;5090436;28;20457;-62
2022/10/23 11:53:00;;;;;;;4.60;2.90;;;18.90;99.90;;;;;;5094856;28;20480;-62
2022/10/23 11:55:30;;;;;;;6.70;2.83;;;18.90;99.90;;;;;;5093657;28;20460;-62
2022/10/23 11:58:30;;;;;;;5.93;2.10;;;18.90;99.90;;;;;;5094571;28;20452;-62
2022/10/23 12:01:15;;;;;;;6.80;2.70;;;18.90;99.90;;;;;;5096300;28;20452;-63
2022/10/23 12:03:53;;;;;;;4.30;2.20;;;18.70;99.90;;;;;;5093652;28;20448;-63
2022/10/23 12:06:26;;;;;;;6.37;2.20;;;18.50;99.90;;;;;;5096026;28;20456;-63
2022/10/23 12:08:58;;;;;;;4.27;2.23;;;18.40;99.90;;;;;;5096289;28;20529;-62
2022/10/23 12:11:47;;;;;;;4.40;2.10;;;18.30;99.90;;;;;;5096148;28;20481;-62
2022/10/23 12:14:34;;;;;;;6.07;2.50;;;18.40;99.90;;;;;;5094720;28;20768;-63
2022/10/23 12:17:03;;;;;;;5.90;2.83;;;18.50;99.90;;;;;;5092255;28;20452;-62
2022/10/23 12:19:47;;;;;;;4.63;2.83;;;18.80;99.90;;;;;;5095486;28;20506;-63
2022/10/23 12:22:14;;;;;;;5.00;2.67;;;19.20;99.90;;;;;;5090361;28;20475;-62
2022/10/23 12:24:57;;;;;;;9.63;2.63;;;19.60;99.90;;;;;;5093272;28;20423;-62
2022/10/23 12:27:32;;;;;;;6.90;2.67;;;19.80;99.90;;;;;;5093709;28;20506;-63
2022/10/23 12:30:14;;;;;;;10.27;3.30;;;20.00;99.90;;;;;;5093677;28;21183;-62
2022/10/23 12:33:12;;;;;;;4.60;3.07;;;20.10;99.90;;;;;;5090243;28;20491;-61
2022/10/23 12:36:24;;;;;;;8.80;2.50;;;20.30;99.90;;;;;;5091496;28;20881;-63
2022/10/23 12:38:53;;;;;;;5.77;2.97;;;20.30;99.90;;;;;;5031868;28;20547;-63
2022/10/23 12:41:25;;;;;;;13.30;3.03;;;20.40;99.90;;;;;;5096209;28;20895;-63
2022/10/23 12:43:54;;;;;;;5.10;2.67;;;20.50;99.90;;;;;;5094447;28;20888;-63
2022/10/23 12:46:34;;;;;;;6.53;2.77;;;20.40;99.90;;;;;;5096561;28;20518;-63
2022/10/23 12:49:04;;;;;;;3.47;3.17;;;20.30;99.90;;;;;;5097089;28;20492;-63
2022/10/23 12:51:35;;;;;;;13.17;3.60;;;20.30;99.90;;;;;;5097375;28;20578;-63
2022/10/23 12:54:14;;;;;;;6.80;2.93;;;20.20;99.90;;;;;;5095230;28;20877;-63
2022/10/23 12:56:43;;;;;;;3.60;3.03;;;20.10;99.90;;;;;;5094850;28;20490;-62
2022/10/23 12:59:16;;;;;;;6.03;2.77;;;20.20;99.90;;;;;;5097014;28;20903;-62
2022/10/23 13:01:44;;;;;;;7.17;2.77;;;20.00;99.90;;;;;;5093405;28;20819;-63
2022/10/23 13:04:22;;;;;;;4.70;2.53;;;19.90;99.90;;;;;;5096290;28;21022;-63
2022/10/23 13:06:54;;;;;;;4.83;2.53;;;19.90;99.90;;;;;;5094542;28;21802;-62
2022/10/23 13:09:28;;;;;;;4.63;3.00;;;19.90;99.90;;;;;;5091235;28;20943;-63
2022/10/23 13:11:56;;;;;;;4.00;2.80;;;19.90;99.90;;;;;;5097232;28;20488;-62